createdAt,value
2023-03-05T00:00:20.402Z,94.39
2023-03-05T00:02:49.268Z,94.34
2023-03-05T00:05:16.943Z,94.16
2023-03-05T00:07:44.411Z,94.30
2023-03-05T00:10:12.434Z,94.82
2023-03-05T00:12:40.412Z,94.69
2023-03-05T00:15:10.768Z,94.77
2023-03-05T00:17:40.408Z,95.04
2023-03-05T00:20:10.877Z,95.11
2023-03-05T00:22:38.499Z,94.82
2023-03-05T00:25:07.079Z,95.27
2023-03-05T00:27:34.578Z,95.30
2023-03-05T00:30:03.203Z,94.87
2023-03-05T00:32:30.866Z,95.35
2023-03-05T00:34:58.800Z,95.25
2023-03-05T00:37:27.655Z,95.29
2023-03-05T00:39:55.544Z,95.27
2023-03-05T00:42:23.069Z,95.35
2023-03-05T00:44:51.367Z,95.84
2023-03-05T00:47:19.477Z,95.50
2023-03-05T00:49:47.346Z,95.99
2023-03-05T00:52:15.816Z,96.08
2023-03-05T00:54:45.055Z,96.06
2023-03-05T00:57:12.858Z,96.57
2023-03-05T00:59:40.519Z,96.73
2023-03-05T01:02:08.448Z,96.83
2023-03-05T01:04:36.834Z,97.29
2023-03-05T01:07:06.157Z,97.65
2023-03-05T01:09:35.364Z,97.75
2023-03-05T01:12:04.371Z,98.22
2023-03-05T01:14:34.553Z,98.24
2023-03-05T01:17:03.341Z,98.35
2023-03-05T01:19:31.872Z,98.49
2023-03-05T01:22:00.108Z,98.91
2023-03-05T01:24:27.626Z,98.65
2023-03-05T01:26:55.214Z,98.86
2023-03-05T01:29:24.219Z,98.84
2023-03-05T01:31:52.351Z,99.49
2023-03-05T01:34:21.232Z,99.44
2023-03-05T01:36:49.935Z,99.76
2023-03-05T01:39:17.495Z,99.48
2023-03-05T01:41:45.698Z,99.62
2023-03-05T01:44:25.383Z,99.98
2023-03-05T01:46:57.096Z,99.86
2023-03-05T01:49:27.771Z,99.94
2023-03-05T01:52:07.209Z,100.00
2023-03-05T01:54:37.730Z,100.00
2023-03-05T01:57:10.734Z,100.00
2023-03-05T01:59:42.817Z,100.00
2023-03-05T02:02:11.316Z,100.00
2023-03-05T02:04:43.516Z,100.00
2023-03-05T02:07:12.600Z,100.00
2023-03-05T02:09:40.701Z,100.00
2023-03-05T02:12:10.383Z,100.00
2023-03-05T02:14:43.415Z,100.00
2023-03-05T02:17:13.333Z,100.00
2023-03-05T02:19:52.036Z,100.00
2023-03-05T02:22:23.337Z,100.00
2023-03-05T02:24:53.306Z,100.00
2023-03-05T02:27:27.104Z,100.00
2023-03-05T02:29:55.750Z,100.00
2023-03-05T02:32:23.311Z,100.00
2023-03-05T02:34:52.946Z,100.00
2023-03-05T02:37:22.596Z,100.00
2023-03-05T02:39:52.488Z,100.00
2023-03-05T02:42:20.095Z,100.00
2023-03-05T02:44:47.771Z,100.00
2023-03-05T02:47:15.359Z,100.00
2023-03-05T02:49:43.616Z,100.00
2023-03-05T02:52:12.329Z,100.00
2023-03-05T02:55:08.404Z,100.00
2023-03-05T02:57:36.817Z,100.00
2023-03-05T03:00:05.134Z,100.00
2023-03-05T03:02:33.076Z,100.00
2023-03-05T03:05:00.585Z,100.00
2023-03-05T03:07:28.309Z,100.00
2023-03-05T03:09:58.329Z,100.00
2023-03-05T03:12:27.132Z,100.00
2023-03-05T03:14:56.339Z,100.00
2023-03-05T03:17:28.428Z,100.00
2023-03-05T03:19:57.315Z,100.00
2023-03-05T03:22:24.791Z,100.00
2023-03-05T03:24:54.320Z,100.00
2023-03-05T03:27:21.798Z,100.00
2023-03-05T03:29:51.101Z,100.00
2023-03-05T03:32:18.803Z,100.00
2023-03-05T03:34:49.345Z,100.00
2023-03-05T03:37:17.090Z,100.00
2023-03-05T03:39:44.648Z,100.00
2023-03-05T03:42:12.194Z,100.00
2023-03-05T03:44:40.337Z,100.00
2023-03-05T03:47:09.221Z,100.00
2023-03-05T03:49:37.750Z,100.00
2023-03-05T03:52:05.703Z,100.00
2023-03-05T03:54:33.879Z,100.00
2023-03-05T03:57:02.400Z,100.00
2023-03-05T03:59:30.044Z,100.00
2023-03-05T04:01:58.441Z,100.00
2023-03-05T04:04:28.916Z,100.00
2023-03-05T04:06:56.646Z,100.00
2023-03-05T04:09:27.718Z,100.00
2023-03-05T04:11:56.329Z,100.00
2023-03-05T04:14:23.803Z,100.00
2023-03-05T04:16:51.469Z,100.00
2023-03-05T04:19:19.091Z,100.00
2023-03-05T04:21:49.346Z,100.00
2023-03-05T04:24:18.393Z,100.00
2023-03-05T04:26:46.339Z,100.00
2023-03-05T04:29:13.821Z,100.00
2023-03-05T04:31:42.676Z,100.00
2023-03-05T04:34:12.417Z,100.00
2023-03-05T04:36:40.123Z,100.00
2023-03-05T04:39:09.107Z,100.00
2023-03-05T04:41:37.003Z,100.00
2023-03-05T04:44:04.942Z,100.00
2023-03-05T04:46:33.388Z,100.00
2023-03-05T04:49:01.385Z,100.00
2023-03-05T04:51:28.986Z,100.00
2023-03-05T04:53:56.567Z,100.00
2023-03-05T04:56:26.737Z,100.00
2023-03-05T04:58:54.337Z,100.00
2023-03-05T05:01:24.788Z,100.00
2023-03-05T05:03:52.366Z,100.00
2023-03-05T05:06:23.892Z,100.00
2023-03-05T05:08:51.643Z,100.00
2023-03-05T05:11:20.396Z,100.00
2023-03-05T05:13:49.468Z,100.00
2023-03-05T05:16:17.434Z,100.00
2023-03-05T05:18:45.044Z,100.00
2023-03-05T05:21:15.322Z,100.00
2023-03-05T05:23:45.834Z,100.00
2023-03-05T05:26:14.532Z,100.00
2023-03-05T05:28:43.049Z,100.00
2023-03-05T05:31:14.539Z,100.00
2023-03-05T05:33:42.417Z,100.00
2023-03-05T05:36:13.522Z,100.00
2023-03-05T05:38:42.417Z,100.00
2023-03-05T05:41:11.694Z,100.00
2023-03-05T05:43:39.326Z,100.00
2023-03-05T05:46:12.331Z,100.00
2023-03-05T05:48:41.529Z,100.00
2023-03-05T05:51:10.996Z,100.00
2023-03-05T05:53:39.497Z,100.00
2023-03-05T05:56:08.314Z,100.00
2023-03-05T05:58:35.967Z,100.00
2023-03-05T06:01:04.100Z,100.00
2023-03-05T06:03:31.771Z,100.00
2023-03-05T06:06:02.423Z,100.00
2023-03-05T06:08:32.330Z,100.00
2023-03-05T06:10:59.829Z,100.00
2023-03-05T06:13:30.709Z,100.00
2023-03-05T06:15:59.029Z,100.00
2023-03-05T06:18:26.995Z,100.00
2023-03-05T06:20:56.184Z,100.00
2023-03-05T06:23:25.603Z,100.00
2023-03-05T06:25:55.408Z,100.00
2023-03-05T06:28:22.892Z,100.00
2023-03-05T06:30:52.386Z,100.00
2023-03-05T06:33:20.401Z,100.00
2023-03-05T06:35:50.471Z,100.00
2023-03-05T06:38:18.182Z,100.00
2023-03-05T06:40:47.312Z,100.00
2023-03-05T06:43:14.872Z,100.00
2023-03-05T06:45:43.464Z,100.00
2023-03-05T06:48:12.692Z,100.00
2023-03-05T06:50:41.040Z,100.00
2023-03-05T06:53:09.805Z,100.00
2023-03-05T06:55:39.596Z,100.00
2023-03-05T06:58:09.361Z,100.00
2023-03-05T07:00:36.865Z,100.00
2023-03-05T07:03:05.074Z,100.00
2023-03-05T07:05:34.166Z,100.00
2023-03-05T07:08:04.027Z,100.00
2023-03-05T07:10:31.550Z,100.00
2023-03-05T07:13:02.418Z,100.00
2023-03-05T07:15:32.113Z,100.00
2023-03-05T07:18:01.327Z,100.00
2023-03-05T07:20:30.310Z,100.00
2023-03-05T07:22:58.025Z,100.00
2023-03-05T07:25:26.267Z,100.00
2023-03-05T07:27:54.132Z,100.00
2023-03-05T07:30:21.791Z,100.00
2023-03-05T07:32:54.409Z,100.00
2023-03-05T07:35:24.408Z,100.00
2023-03-05T07:37:54.843Z,100.00
2023-03-05T07:40:22.836Z,100.00
2023-03-05T07:42:51.459Z,100.00
2023-03-05T07:45:29.059Z,100.00
2023-03-05T07:47:58.360Z,100.00
2023-03-05T07:50:25.860Z,100.00
2023-03-05T07:52:53.707Z,100.00
2023-03-05T07:55:21.855Z,100.00
2023-03-05T07:57:49.374Z,100.00
2023-03-05T08:00:18.442Z,100.00
2023-03-05T08:02:46.057Z,100.00
2023-03-05T08:05:14.950Z,100.00
2023-03-05T08:07:42.495Z,100.00
2023-03-05T08:10:12.081Z,100.00
2023-03-05T08:12:40.667Z,100.00
2023-03-05T08:15:09.305Z,100.00
2023-03-05T08:17:37.691Z,100.00
2023-03-05T08:20:14.386Z,100.00
2023-03-05T08:22:44.144Z,100.00
2023-03-05T08:25:13.451Z,100.00
2023-03-05T08:27:43.430Z,100.00
2023-03-05T08:30:14.344Z,100.00
2023-03-05T08:32:41.915Z,100.00
2023-03-05T08:35:12.376Z,100.00
2023-03-05T08:37:39.923Z,100.00
2023-03-05T08:40:11.041Z,100.00
2023-03-05T08:42:38.578Z,100.00
2023-03-05T08:45:07.006Z,100.00
2023-03-05T08:47:34.661Z,100.00
2023-03-05T08:50:02.216Z,100.00
2023-03-05T08:52:29.745Z,100.00
2023-03-05T08:54:57.507Z,100.00
2023-03-05T08:57:27.339Z,100.00
2023-03-05T08:59:56.706Z,100.00
2023-03-05T09:02:24.395Z,100.00
2023-03-05T09:04:52.167Z,100.00
2023-03-05T09:07:19.753Z,100.00
2023-03-05T09:09:47.427Z,100.00
2023-03-05T09:12:16.361Z,100.00
2023-03-05T09:14:45.231Z,100.00
2023-03-05T09:17:16.324Z,100.00
2023-03-05T09:19:43.897Z,100.00
2023-03-05T09:22:11.450Z,100.00
2023-03-05T09:24:40.711Z,100.00
2023-03-05T09:27:08.456Z,100.00
2023-03-05T09:29:36.336Z,100.00
2023-03-05T09:32:05.474Z,100.00
2023-03-05T09:34:34.501Z,100.00
2023-03-05T09:37:02.798Z,100.00
2023-03-05T09:39:31.353Z,100.00
2023-03-05T09:42:23.283Z,100.00
2023-03-05T09:45:04.523Z,100.00
2023-03-05T09:47:52.790Z,100.00
2023-03-05T09:50:34.323Z,100.00
2023-03-05T09:53:08.399Z,100.00
2023-03-05T09:55:40.280Z,100.00
2023-03-05T09:58:14.356Z,100.00
2023-03-05T10:00:45.106Z,100.00
2023-03-05T10:03:22.881Z,100.00
2023-03-05T10:06:02.420Z,100.00
2023-03-05T10:08:45.724Z,100.00
2023-03-05T10:11:34.409Z,100.00
2023-03-05T10:14:03.660Z,100.00
2023-03-05T10:17:07.385Z,100.00
2023-03-05T10:20:05.245Z,100.00
2023-03-05T10:22:39.151Z,100.00
2023-03-05T10:25:20.366Z,100.00
2023-03-05T10:27:54.277Z,100.00
2023-03-05T10:30:55.038Z,99.78
2023-03-05T10:33:33.712Z,99.41
2023-03-05T10:36:24.175Z,98.57
2023-03-05T10:39:12.544Z,97.94
2023-03-05T10:41:49.893Z,97.14
2023-03-05T10:44:25.592Z,97.04
2023-03-05T10:46:55.178Z,97.25
2023-03-05T10:49:30.398Z,95.86
2023-03-05T10:52:08.786Z,94.80
2023-03-05T10:54:41.639Z,94.99
2023-03-05T10:57:19.347Z,94.84
2023-03-05T10:59:51.392Z,94.62
2023-03-05T11:02:21.653Z,93.08
2023-03-05T11:04:50.085Z,93.59
2023-03-05T11:07:38.037Z,93.55
2023-03-05T11:10:21.197Z,93.71
2023-03-05T11:12:54.346Z,93.05
2023-03-05T11:15:30.160Z,92.61
2023-03-05T11:18:17.930Z,92.04
2023-03-05T11:20:46.392Z,91.30
2023-03-05T11:23:18.308Z,91.30
2023-03-05T11:25:53.482Z,90.47
2023-03-05T11:28:32.885Z,90.36
2023-03-05T11:31:20.668Z,91.02
2023-03-05T11:33:57.336Z,90.04
2023-03-05T11:36:27.477Z,89.89
2023-03-05T11:38:59.654Z,89.05
2023-03-05T11:41:37.129Z,88.28
2023-03-05T11:44:13.572Z,89.65
2023-03-05T11:46:44.231Z,89.62
2023-03-05T11:49:17.331Z,88.98
2023-03-05T11:51:49.794Z,88.82
2023-03-05T11:54:24.392Z,89.10
2023-03-05T11:56:52.837Z,88.93
2023-03-05T11:59:26.697Z,88.58
2023-03-05T12:01:56.579Z,88.06
2023-03-05T12:04:25.421Z,87.81
2023-03-05T12:06:57.217Z,87.63
2023-03-05T12:09:34.717Z,86.91
2023-03-05T12:12:10.630Z,84.85
2023-03-05T12:14:45.092Z,84.67
2023-03-05T12:17:19.752Z,83.71
2023-03-05T12:19:54.454Z,82.90
2023-03-05T12:22:24.316Z,82.29
2023-03-05T12:24:54.411Z,82.02
2023-03-05T12:27:36.922Z,82.74
2023-03-05T12:30:06.067Z,83.69
2023-03-05T12:33:00.909Z,83.35
2023-03-05T12:35:38.603Z,82.48
2023-03-05T12:38:26.687Z,81.74
2023-03-05T12:41:43.032Z,81.31
2023-03-05T12:44:23.581Z,80.64
2023-03-05T12:47:23.264Z,79.85
2023-03-05T12:49:50.958Z,79.35
2023-03-05T12:52:27.626Z,77.36
2023-03-05T12:55:01.960Z,75.91
2023-03-05T12:57:31.273Z,74.84
2023-03-05T13:00:06.000Z,74.48
2023-03-05T13:02:37.145Z,74.27
2023-03-05T13:05:15.920Z,71.63
2023-03-05T13:08:07.932Z,71.61
2023-03-05T13:10:36.336Z,71.04
2023-03-05T13:13:04.169Z,71.25
2023-03-05T13:15:34.415Z,71.67
2023-03-05T13:18:08.296Z,70.94
2023-03-05T13:20:39.386Z,71.18
2023-03-05T13:23:23.510Z,70.05
2023-03-05T13:25:59.858Z,69.60
2023-03-05T13:28:28.258Z,70.19
2023-03-05T13:30:59.459Z,71.78
2023-03-05T13:33:30.107Z,69.68
2023-03-05T13:35:58.102Z,69.34
2023-03-05T13:38:30.810Z,69.25
2023-03-05T13:41:09.010Z,69.53
2023-03-05T13:43:44.138Z,69.37
2023-03-05T13:46:13.718Z,69.20
2023-03-05T13:48:41.497Z,69.79
2023-03-05T13:51:11.822Z,69.74
2023-03-05T13:53:43.351Z,69.16
2023-03-05T13:56:15.854Z,66.25
2023-03-05T13:58:50.626Z,66.40
2023-03-05T14:01:43.669Z,66.40
2023-03-05T14:04:21.394Z,66.71
2023-03-05T14:06:52.937Z,66.89
2023-03-05T14:09:23.475Z,65.74
2023-03-05T14:11:56.923Z,63.96
2023-03-05T14:14:26.109Z,64.63
2023-03-05T14:16:55.173Z,66.00
2023-03-05T14:19:36.510Z,65.60
2023-03-05T14:22:06.823Z,66.12
2023-03-05T14:24:34.803Z,66.14
2023-03-05T14:27:08.669Z,64.81
2023-03-05T14:29:37.387Z,64.89
2023-03-05T14:32:10.502Z,65.37
2023-03-05T14:34:43.664Z,65.06
2023-03-05T14:37:24.454Z,65.21
2023-03-05T14:39:55.476Z,65.25
2023-03-05T14:42:32.352Z,63.62
2023-03-05T14:45:02.023Z,63.94
2023-03-05T14:47:31.282Z,63.54
2023-03-05T14:49:58.753Z,63.24
2023-03-05T14:52:26.829Z,63.30
2023-03-05T14:54:55.739Z,63.38
2023-03-05T14:57:29.115Z,64.75
2023-03-05T14:59:56.729Z,64.82
2023-03-05T15:02:27.017Z,63.32
2023-03-05T15:04:56.442Z,63.13
2023-03-05T15:07:30.177Z,63.50
2023-03-05T15:10:00.677Z,64.03
2023-03-05T15:12:28.331Z,65.43
2023-03-05T15:15:01.347Z,65.26
2023-03-05T15:17:35.342Z,65.29
2023-03-05T15:20:09.979Z,65.40
2023-03-05T15:22:38.289Z,65.66
2023-03-05T15:25:06.874Z,65.45
2023-03-05T15:27:36.350Z,64.44
2023-03-05T15:30:04.487Z,63.74
2023-03-05T15:32:32.844Z,62.71
2023-03-05T15:35:00.892Z,63.34
2023-03-05T15:37:29.776Z,63.84
2023-03-05T15:39:57.390Z,64.74
2023-03-05T15:42:25.816Z,65.82
2023-03-05T15:44:54.350Z,66.05
2023-03-05T15:47:22.431Z,66.58
2023-03-05T15:49:51.425Z,66.59
2023-03-05T15:52:19.349Z,65.72
2023-03-05T15:54:48.223Z,66.33
2023-03-05T15:57:15.733Z,66.83
2023-03-05T15:59:43.383Z,67.17
2023-03-05T16:02:10.929Z,67.40
2023-03-05T16:04:39.354Z,67.60
2023-03-05T16:07:07.472Z,67.14
2023-03-05T16:09:39.138Z,67.28
2023-03-05T16:12:13.220Z,67.82
2023-03-05T16:14:42.297Z,67.97
2023-03-05T16:17:10.092Z,67.91
2023-03-05T16:19:41.396Z,68.05
2023-03-05T16:22:09.891Z,68.38
2023-03-05T16:24:39.403Z,67.83
2023-03-05T16:27:10.511Z,68.94
2023-03-05T16:29:38.256Z,70.02
2023-03-05T16:32:07.141Z,70.95
2023-03-05T16:34:35.436Z,71.68
2023-03-05T16:37:04.536Z,71.98
2023-03-05T16:39:32.298Z,72.16
2023-03-05T16:42:00.706Z,72.47
2023-03-05T16:44:29.612Z,72.64
2023-03-05T16:46:57.207Z,71.58
2023-03-05T16:49:24.822Z,70.83
2023-03-05T16:51:52.408Z,71.00
2023-03-05T16:54:22.848Z,71.71
2023-03-05T16:56:50.417Z,71.71
2023-03-05T16:59:17.985Z,71.63
2023-03-05T17:01:47.418Z,72.28
2023-03-05T17:04:15.085Z,72.22
2023-03-05T17:06:45.941Z,72.67
2023-03-05T17:09:13.789Z,73.12
2023-03-05T17:11:41.401Z,73.63
2023-03-05T17:14:09.428Z,74.12
2023-03-05T17:16:37.112Z,73.96
2023-03-05T17:19:05.980Z,74.69
2023-03-05T17:21:33.495Z,75.06
2023-03-05T17:24:01.107Z,75.31
2023-03-05T17:26:28.779Z,75.35
2023-03-05T17:28:56.740Z,75.93
2023-03-05T17:31:24.283Z,75.97
2023-03-05T17:33:52.354Z,76.09
2023-03-05T17:36:24.351Z,76.58
2023-03-05T17:38:52.639Z,76.92
2023-03-05T17:41:21.361Z,77.44
2023-03-05T17:43:48.908Z,77.74
2023-03-05T17:46:17.323Z,78.06
2023-03-05T17:48:46.038Z,78.37
2023-03-05T17:51:16.214Z,78.73
2023-03-05T17:53:45.883Z,78.65
2023-03-05T17:56:17.084Z,78.52
2023-03-05T17:58:45.420Z,78.86
2023-03-05T18:01:12.965Z,79.02
2023-03-05T18:03:40.709Z,79.24
2023-03-05T18:06:08.284Z,79.24
2023-03-05T18:08:36.432Z,79.77
2023-03-05T18:11:05.548Z,79.81
2023-03-05T18:13:33.910Z,79.92
2023-03-05T18:16:01.971Z,80.48
2023-03-05T18:18:30.405Z,80.67
2023-03-05T18:20:57.921Z,80.50
2023-03-05T18:23:25.484Z,80.62
2023-03-05T18:25:53.276Z,81.22
2023-03-05T18:28:22.140Z,81.17
2023-03-05T18:30:49.703Z,80.97
2023-03-05T18:33:19.914Z,80.99
2023-03-05T18:35:49.519Z,81.09
2023-03-05T18:38:17.294Z,81.24
2023-03-05T18:40:46.300Z,81.47
2023-03-05T18:43:17.079Z,81.53
2023-03-05T18:45:47.481Z,81.21
2023-03-05T18:48:15.350Z,81.01
2023-03-05T18:50:44.405Z,80.67
2023-03-05T18:53:13.668Z,80.56
2023-03-05T18:55:42.606Z,80.95
2023-03-05T18:58:13.968Z,81.13
2023-03-05T19:00:43.626Z,81.33
2023-03-05T19:03:13.036Z,81.65
2023-03-05T19:05:41.587Z,81.66
2023-03-05T19:08:09.213Z,81.76
2023-03-05T19:10:36.788Z,81.56
2023-03-05T19:13:18.525Z,81.88
2023-03-05T19:15:46.089Z,82.11
2023-03-05T19:18:14.938Z,82.19
2023-03-05T19:20:42.456Z,82.52
2023-03-05T19:23:10.019Z,82.60
2023-03-05T19:25:37.506Z,82.88
2023-03-05T19:28:05.175Z,82.73
2023-03-05T19:30:32.659Z,83.09
2023-03-05T19:33:00.450Z,83.22
2023-03-05T19:35:29.423Z,83.30
2023-03-05T19:37:57.284Z,83.83
2023-03-05T19:40:25.170Z,83.45
2023-03-05T19:42:52.724Z,83.73
2023-03-05T19:45:20.269Z,84.13
2023-03-05T19:47:47.783Z,84.19
2023-03-05T19:50:16.764Z,84.20
2023-03-05T19:52:45.647Z,84.43
2023-03-05T19:55:13.913Z,84.49
2023-03-05T19:57:41.397Z,84.68
2023-03-05T20:00:10.444Z,84.30
2023-03-05T20:02:37.954Z,84.75
2023-03-05T20:05:06.026Z,84.55
2023-03-05T20:07:33.536Z,84.85
2023-03-05T20:10:02.427Z,85.00
2023-03-05T20:12:31.168Z,85.14
2023-03-05T20:14:59.425Z,85.09
2023-03-05T20:17:27.096Z,85.28
2023-03-05T20:19:58.740Z,85.15
2023-03-05T20:22:26.393Z,85.70
2023-03-05T20:24:53.878Z,85.38
2023-03-05T20:27:23.092Z,85.76
2023-03-05T20:29:50.625Z,85.86
2023-03-05T20:32:18.740Z,85.96
2023-03-05T20:34:46.252Z,86.39
2023-03-05T20:37:14.366Z,86.27
2023-03-05T20:39:42.080Z,86.22
2023-03-05T20:42:11.363Z,86.75
2023-03-05T20:44:40.163Z,86.49
2023-03-05T20:47:23.552Z,86.64
2023-03-05T20:49:55.102Z,86.95
2023-03-05T20:52:22.609Z,87.36
2023-03-05T20:54:50.294Z,87.45
2023-03-05T20:57:19.789Z,87.42
2023-03-05T20:59:49.347Z,87.91
2023-03-05T21:02:18.200Z,88.19
2023-03-05T21:04:45.774Z,88.86
2023-03-05T21:07:15.842Z,89.24
2023-03-05T21:09:43.466Z,89.51
2023-03-05T21:12:11.616Z,89.57
2023-03-05T21:14:40.663Z,89.67
2023-03-05T21:17:09.702Z,89.57
2023-03-05T21:19:39.158Z,89.87
2023-03-05T21:22:08.385Z,89.73
2023-03-05T21:24:51.891Z,90.13
2023-03-05T21:27:19.529Z,90.25
2023-03-05T21:29:47.010Z,89.79
2023-03-05T21:32:16.174Z,89.73
2023-03-05T21:34:43.982Z,89.62
2023-03-05T21:37:12.050Z,89.71
2023-03-05T21:39:39.525Z,89.72
2023-03-05T21:42:07.183Z,89.74
2023-03-05T21:44:34.831Z,89.88
2023-03-05T21:47:02.840Z,89.78
2023-03-05T21:49:31.694Z,90.01
2023-03-05T21:52:08.846Z,90.23
2023-03-05T21:54:36.966Z,90.25
2023-03-05T21:57:05.439Z,90.75
2023-03-05T21:59:33.056Z,90.61
2023-03-05T22:02:00.648Z,91.02
2023-03-05T22:04:28.236Z,91.15
2023-03-05T22:06:57.626Z,90.99
2023-03-05T22:09:26.422Z,91.33
2023-03-05T22:11:54.707Z,91.07
2023-03-05T22:14:22.295Z,91.18
2023-03-05T22:16:53.065Z,91.38
2023-03-05T22:19:20.814Z,91.12
2023-03-05T22:21:49.057Z,91.14
2023-03-05T22:24:18.412Z,90.75
2023-03-05T22:26:46.716Z,90.67
2023-03-05T22:29:16.865Z,90.49
2023-03-05T22:31:45.378Z,90.60
2023-03-05T22:34:12.892Z,90.63
2023-03-05T22:36:40.417Z,90.78
2023-03-05T22:39:08.892Z,90.75
2023-03-05T22:41:37.764Z,90.79
2023-03-05T22:44:06.336Z,90.83
2023-03-05T22:46:34.047Z,90.94
2023-03-05T22:49:01.584Z,91.08
2023-03-05T22:51:29.161Z,91.28
2023-03-05T22:53:56.835Z,91.47
2023-03-05T22:56:24.312Z,91.35
2023-03-05T22:58:55.366Z,91.42
2023-03-05T23:01:26.495Z,91.62
2023-03-05T23:03:58.771Z,91.53
2023-03-05T23:06:28.434Z,91.46
2023-03-05T23:08:56.725Z,91.87
2023-03-05T23:11:24.235Z,91.67
2023-03-05T23:13:51.760Z,91.56
2023-03-05T23:16:20.587Z,91.81
2023-03-05T23:18:48.113Z,91.68
2023-03-05T23:21:17.431Z,92.04
2023-03-05T23:23:44.971Z,91.87
2023-03-05T23:26:13.632Z,92.13
2023-03-05T23:28:41.134Z,92.26
2023-03-05T23:31:08.690Z,92.41
2023-03-05T23:33:39.086Z,92.50
2023-03-05T23:36:10.599Z,92.57
2023-03-05T23:38:38.125Z,92.43
2023-03-05T23:41:09.310Z,92.72
2023-03-05T23:43:37.347Z,93.24
2023-03-05T23:46:11.560Z,93.47
2023-03-05T23:48:42.004Z,93.79
2023-03-05T23:51:10.858Z,94.23
2023-03-05T23:53:38.889Z,94.28
2023-03-05T23:56:10.888Z,94.36
2023-03-05T23:58:40.385Z,94.38
